Time;durP1;ratioP1;P1;durP2;ratioP2;P2;SDS_P1;SDS_P2;PMS_P1;PMS_P2;Temp;Humidity;BMP_temperature;BMP_pressure;BME280_temperature;BME280_humidity;BME280_pressure;Samples;Min_cycle;Max_cycle;Signal;HPM_P1;HPM_P2
2022/06/11 00:00:43;;;;;;;16.00;6.80;;;;;;;;;;5016545;28;20065;-63
2022/06/11 00:03:10;;;;;;;17.55;7.35;;;;;;;;;;5016904;28;20508;-64
2022/06/11 00:05:37;;;;;;;14.20;6.88;;;;;;;;;;5016618;28;20046;-64
2022/06/11 00:08:03;;;;;;;16.08;6.70;;;;;;;;;;5016780;28;20041;-64
2022/06/11 00:10:29;;;;;;;13.88;6.38;;;;;;;;;;5016694;28;20046;-63
2022/06/11 00:12:55;;;;;;;15.18;6.75;;;;;;;;;;5016601;28;20044;-64
2022/06/11 00:15:22;;;;;;;15.75;6.72;;;;;;;;;;5015596;28;20050;-63
2022/06/11 00:17:48;;;;;;;17.42;6.95;;;;;;;;;;5016541;28;20050;-63
2022/06/11 00:20:14;;;;;;;;;;;;;;;;;;5016797;28;20128;-63
2022/06/11 00:22:41;;;;;;;16.77;7.50;;;;;;;;;;5016243;28;19969;-63
2022/06/11 00:25:07;;;;;;;17.38;7.75;;;;;;;;;;5016856;28;20120;-64
2022/06/11 00:27:34;;;;;;;18.50;6.82;;;;;;;;;;5017003;28;20053;-63
2022/06/11 00:30:00;;;;;;;16.30;7.97;;;;;;;;;;5016047;28;20141;-63
2022/06/11 00:32:27;;;;;;;16.83;7.50;;;;;;;;;;5016580;28;20049;-63
2022/06/11 00:34:58;;;;;;;13.75;7.43;;;;;;;;;;5016227;28;20050;-63
2022/06/11 00:37:24;;;;;;;16.75;7.70;;;;;;;;;;5015562;28;20053;-64
2022/06/11 00:39:50;;;;;;;20.00;8.20;;;;;;;;;;5016077;28;20077;-64
2022/06/11 00:42:20;;;;;;;18.50;8.70;;;;;;;;;;5016619;28;20046;-64
2022/06/11 00:44:47;;;;;;;14.90;7.40;;;;;;;;;;5016112;28;20050;-64
2022/06/11 00:47:19;;;;;;;14.98;7.70;;;;;;;;;;5016258;28;20081;-64
2022/06/11 00:49:50;;;;;;;18.15;7.30;;;;;;;;;;5015987;28;20065;-63
2022/06/11 00:52:20;;;;;;;16.27;8.52;;;;;;;;;;5015509;28;20046;-63
2022/06/11 00:54:55;;;;;;;14.90;7.28;;;;;;;;;;5015552;28;20057;-63
2022/06/11 00:57:21;;;;;;;15.77;8.57;;;;;;;;;;5015786;28;20512;-64
2022/06/11 00:59:50;;;;;;;18.10;8.05;;;;;;;;;;4998831;28;20096;-63
2022/06/11 01:02:17;;;;;;;17.60;7.75;;;;;;;;;;5015548;28;20041;-64
2022/06/11 01:04:47;;;;;;;14.40;7.32;;;;;;;;;;5015538;28;20521;-64
2022/06/11 01:07:18;;;;;;;19.15;7.47;;;;;;;;;;5015778;28;20116;-64
2022/06/11 01:10:03;;;;;;;16.23;6.72;;;;;;;;;;5015025;28;20054;-63
2022/06/11 01:12:32;;;;;;;16.65;6.50;;;;;;;;;;5014934;28;20129;-63
2022/06/11 01:15:08;;;;;;;15.45;5.95;;;;;;;;;;5015204;28;20352;-64
2022/06/11 01:17:52;;;;;;;15.70;6.28;;;;;;;;;;5015922;28;20435;-63
2022/06/11 01:20:18;;;;;;;18.50;5.97;;;;;;;;;;5015095;28;20398;-64
2022/06/11 01:22:47;;;;;;;20.05;5.50;;;;;;;;;;5015674;28;20048;-64
2022/06/11 01:25:32;;;;;;;16.13;5.20;;;;;;;;;;5015305;28;20054;-64
2022/06/11 01:28:17;;;;;;;14.73;4.55;;;;;;;;;;5015314;28;20053;-64
2022/06/11 01:30:46;;;;;;;14.57;4.72;;;;;;;;;;5014732;28;20548;-64
2022/06/11 01:33:12;;;;;;;15.05;4.60;;;;;;;;;;5015126;28;20046;-64
2022/06/11 01:35:44;;;;;;;13.20;4.45;;;;;;;;;;5015034;28;20525;-64
2022/06/11 01:38:18;;;;;;;14.02;4.75;;;;;;;;;;5014770;28;20563;-65
2022/06/11 01:40:47;;;;;;;14.57;4.40;;;;;;;;;;5015498;28;20081;-64
2022/06/11 01:43:17;;;;;;;12.95;4.05;;;;;;;;;;5014926;28;20451;-64
2022/06/11 01:45:43;;;;;;;19.48;4.40;;;;;;;;;;5015289;28;20050;-64
2022/06/11 01:48:15;;;;;;;17.45;4.18;;;;;;;;;;5014747;28;20064;-64
2022/06/11 01:50:50;;;;;;;15.32;4.70;;;;;;;;;;5014728;28;20459;-64
2022/06/11 01:53:19;;;;;;;15.25;4.20;;;;;;;;;;5013731;28;20081;-64
2022/06/11 01:55:45;;;;;;;18.45;4.85;;;;;;;;;;5014560;28;20061;-64
2022/06/11 01:58:22;;;;;;;16.05;4.22;;;;;;;;;;5014750;28;20049;-64
2022/06/11 02:01:17;;;;;;;18.00;4.25;;;;;;;;;;5014759;28;20482;-64
2022/06/11 02:03:49;;;;;;;17.45;3.67;;;;;;;;;;5009535;28;20095;-64
2022/06/11 02:06:24;;;;;;;17.23;4.63;;;;;;;;;;5014613;28;20101;-64
2022/06/11 02:08:50;;;;;;;13.70;3.78;;;;;;;;;;5013819;28;20046;-64
2022/06/11 02:11:31;;;;;;;15.02;3.78;;;;;;;;;;5014514;28;20061;-64
2022/06/11 02:14:01;;;;;;;19.42;4.55;;;;;;;;;;5014551;28;20432;-64
2022/06/11 02:16:50;;;;;;;12.32;3.67;;;;;;;;;;5014691;28;20053;-64
2022/06/11 02:19:19;;;;;;;13.13;3.97;;;;;;;;;;5013505;28;20559;-64
2022/06/11 02:21:49;;;;;;;16.25;3.88;;;;;;;;;;5014235;28;20049;-64
2022/06/11 02:24:20;;;;;;;16.42;4.22;;;;;;;;;;5014194;28;20056;-64
2022/06/11 02:26:49;;;;;;;14.73;3.80;;;;;;;;;;5014163;28;20056;-64
2022/06/11 02:29:17;;;;;;;17.75;3.60;;;;;;;;;;5014217;28;20046;-64
2022/06/11 02:31:50;;;;;;;17.65;3.95;;;;;;;;;;5013754;28;20096;-64
2022/06/11 02:34:17;;;;;;;19.10;4.20;;;;;;;;;;5014222;28;20137;-65
2022/06/11 02:36:46;;;;;;;15.93;3.65;;;;;;;;;;5013996;28;20104;-64
2022/06/11 02:39:15;;;;;;;17.02;3.90;;;;;;;;;;5014304;28;20129;-65
2022/06/11 02:41:43;;;;;;;;;;;;;;;;;;5013496;28;20081;-64
2022/06/11 02:44:09;;;;;;;;;;;;;;;;;;5013371;28;19927;-64
2022/06/11 02:46:41;;;;;;;16.92;3.88;;;;;;;;;;5013413;28;20012;-65
2022/06/11 02:49:09;;;;;;;15.50;3.88;;;;;;;;;;5012052;28;20068;-65
2022/06/11 02:51:36;;;;;;;13.57;4.35;;;;;;;;;;5013661;28;20073;-65
2022/06/11 02:54:02;;;;;;;14.98;3.92;;;;;;;;;;5013063;28;20057;-65
2022/06/11 02:56:28;;;;;;;18.88;3.72;;;;;;;;;;4996594;28;20108;-65
2022/06/11 02:58:55;;;;;;;16.38;3.97;;;;;;;;;;5011601;28;20486;-65
2022/06/11 03:01:21;;;;;;;;;;;;;;;;;;5013108;28;20053;-65
2022/06/11 03:03:49;;;;;;;14.57;3.67;;;;;;;;;;5012431;28;19921;-64
2022/06/11 03:06:15;;;;;;;15.55;3.97;;;;;;;;;;5012454;28;20058;-65
2022/06/11 03:08:41;;;;;;;19.08;4.28;;;;;;;;;;5011582;28;20050;-64
2022/06/11 03:11:08;;;;;;;18.25;4.10;;;;;;;;;;5011545;28;20050;-65
2022/06/11 03:13:34;;;;;;;16.60;4.10;;;;;;;;;;5012602;28;20187;-64
2022/06/11 03:16:00;;;;;;;18.15;4.30;;;;;;;;;;5012125;28;20042;-65
2022/06/11 03:18:26;;;;;;;15.15;4.40;;;;;;;;;;5011927;28;20049;-65
2022/06/11 03:20:53;;;;;;;15.55;3.97;;;;;;;;;;5011926;28;20057;-64
2022/06/11 03:23:19;;;;;;;;;;;;;;;;;;5011871;28;20042;-65
2022/06/11 03:25:45;;;;;;;20.08;4.50;;;;;;;;;;5011415;28;19921;-65
2022/06/11 03:28:13;;;;;;;15.93;4.30;;;;;;;;;;5011932;28;20121;-64
2022/06/11 03:30:40;;;;;;;15.70;4.53;;;;;;;;;;5011195;28;20045;-64
2022/06/11 03:33:06;;;;;;;16.35;4.38;;;;;;;;;;5010941;28;20038;-65
2022/06/11 03:35:33;;;;;;;16.33;4.35;;;;;;;;;;5011400;28;20057;-65
2022/06/11 03:37:59;;;;;;;14.57;4.65;;;;;;;;;;5010373;28;20061;-64
2022/06/11 03:40:25;;;;;;;15.55;4.03;;;;;;;;;;5011197;28;20072;-65
2022/06/11 03:42:51;;;;;;;15.75;4.38;;;;;;;;;;5011099;28;20045;-64
2022/06/11 03:45:17;;;;;;;;;;;;;;;;;;5011445;28;20085;-65
2022/06/11 03:47:44;;;;;;;14.52;4.47;;;;;;;;;;5010067;28;19921;-65
2022/06/11 03:50:14;;;;;;;15.40;4.47;;;;;;;;;;5011457;28;20076;-65
2022/06/11 03:52:40;;;;;;;16.20;4.65;;;;;;;;;;5011548;28;20393;-65
2022/06/11 03:55:06;;;;;;;16.15;4.40;;;;;;;;;;5010029;28;20042;-65
2022/06/11 03:57:34;;;;;;;20.50;4.60;;;;;;;;;;5011048;28;20501;-65
2022/06/11 04:00:01;;;;;;;16.30;4.78;;;;;;;;;;5010915;28;20060;-64
2022/06/11 04:02:28;;;;;;;14.73;4.63;;;;;;;;;;5010411;28;20120;-65
2022/06/11 04:04:54;;;;;;;;;;;;;;;;;;5011811;28;20133;-64
2022/06/11 04:07:20;;;;;;;19.30;5.63;;;;;;;;;;5011392;28;19965;-65
2022/06/11 04:09:47;;;;;;;17.30;4.75;;;;;;;;;;5010816;28;20152;-64
2022/06/11 04:12:15;;;;;;;17.73;5.10;;;;;;;;;;5011373;28;20099;-64
2022/06/11 04:14:43;;;;;;;17.45;5.05;;;;;;;;;;5010682;28;20084;-64
2022/06/11 04:17:12;;;;;;;17.58;5.43;;;;;;;;;;5010718;28;20042;-64
2022/06/11 04:19:40;;;;;;;19.48;5.10;;;;;;;;;;5011025;28;20448;-64
2022/06/11 04:22:07;;;;;;;20.92;5.75;;;;;;;;;;5013226;28;20089;-64
2022/06/11 04:24:33;;;;;;;22.88;5.85;;;;;;;;;;5014193;28;20537;-65
2022/06/11 04:27:01;;;;;;;22.88;5.63;;;;;;;;;;5014145;28;20088;-64
2022/06/11 04:29:28;;;;;;;21.10;4.88;;;;;;;;;;5013989;28;20057;-64
2022/06/11 04:31:56;;;;;;;20.80;5.63;;;;;;;;;;5013733;28;20405;-63
2022/06/11 04:34:23;;;;;;;21.45;5.32;;;;;;;;;;5014090;28;20053;-64
2022/06/11 04:36:50;;;;;;;19.85;5.32;;;;;;;;;;5014137;28;20107;-63
2022/06/11 04:39:17;;;;;;;25.02;5.90;;;;;;;;;;5013563;28;20050;-64
2022/06/11 04:41:44;;;;;;;21.70;5.28;;;;;;;;;;5012841;28;20050;-64
2022/06/11 04:44:10;;;;;;;23.30;5.50;;;;;;;;;;5013845;28;20123;-64
2022/06/11 04:46:36;;;;;;;;;;;;;;;;;;5014203;28;20077;-64
2022/06/11 04:49:03;;;;;;;23.70;5.10;;;;;;;;;;5013764;28;19921;-64
2022/06/11 04:51:29;;;;;;;21.38;4.90;;;;;;;;;;5013656;28;20080;-64
2022/06/11 04:53:55;;;;;;;21.35;5.40;;;;;;;;;;5014484;28;20369;-64
2022/06/11 04:56:21;;;;;;;;;;;;;;;;;;5014413;28;20046;-63
2022/06/11 04:58:47;;;;;;;19.80;4.80;;;;;;;;;;5013528;28;20227;-64
2022/06/11 05:01:13;;;;;;;17.85;5.00;;;;;;;;;;5013542;28;20085;-64
2022/06/11 05:03:40;;;;;;;18.50;5.30;;;;;;;;;;5013459;28;20104;-64
2022/06/11 05:06:06;;;;;;;23.13;5.18;;;;;;;;;;5013424;28;20402;-64
2022/06/11 05:08:32;;;;;;;22.27;5.10;;;;;;;;;;5013529;28;20164;-65
2022/06/11 05:10:58;;;;;;;;;;;;;;;;;;5013657;28;20474;-63
2022/06/11 05:13:25;;;;;;;19.25;5.22;;;;;;;;;;5013174;28;19980;-63
2022/06/11 05:15:53;;;;;;;27.02;5.32;;;;;;;;;;5013403;28;20050;-63
2022/06/11 05:18:20;;;;;;;24.90;6.13;;;;;;;;;;5012144;28;20084;-64
2022/06/11 05:20:46;;;;;;;21.33;5.43;;;;;;;;;;5013222;28;20056;-63
2022/06/11 05:23:13;;;;;;;21.50;5.10;;;;;;;;;;5012982;28;20046;-64
2022/06/11 05:25:40;;;;;;;22.35;5.90;;;;;;;;;;5011935;28;20045;-64
2022/06/11 05:28:07;;;;;;;23.45;5.78;;;;;;;;;;5013033;28;20122;-63
2022/06/11 05:30:35;;;;;;;22.52;5.72;;;;;;;;;;5012718;28;20568;-64
2022/06/11 05:33:02;;;;;;;22.63;5.05;;;;;;;;;;5012245;28;20046;-63
2022/06/11 05:35:30;;;;;;;29.05;6.30;;;;;;;;;;5013538;28;20142;-65
2022/06/11 05:37:57;;;;;;;27.85;6.65;;;;;;;;;;5012791;28;20050;-64
2022/06/11 05:40:25;;;;;;;28.42;9.13;;;;;;;;;;5011996;28;20053;-63
2022/06/11 05:42:51;;;;;;;34.50;7.07;;;;;;;;;;5012795;28;20524;-65
2022/06/11 05:45:19;;;;;;;30.02;8.82;;;;;;;;;;5012601;28;20052;-65
2022/06/11 05:47:45;;;;;;;30.48;6.60;;;;;;;;;;5012609;28;20446;-63
2022/06/11 05:50:15;;;;;;;24.30;5.88;;;;;;;;;;4994470;28;20131;-63
2022/06/11 05:52:45;;;;;;;27.92;6.40;;;;;;;;;;5011449;28;20053;-65
2022/06/11 05:55:12;;;;;;;34.08;7.35;;;;;;;;;;5012973;28;20050;-65
2022/06/11 05:57:38;;;;;;;28.35;6.32;;;;;;;;;;5012342;28;20513;-63
2022/06/11 06:00:06;;;;;;;31.55;7.63;;;;;;;;;;5011779;28;20042;-63
2022/06/11 06:02:32;;;;;;;28.42;6.20;;;;;;;;;;5012197;28;20312;-63
2022/06/11 06:04:58;;;;;;;22.58;6.53;;;;;;;;;;5011767;28;20379;-64
2022/06/11 06:07:24;;;;;;;25.50;6.40;;;;;;;;;;5011325;28;20042;-66
2022/06/11 06:09:50;;;;;;;29.88;7.43;;;;;;;;;;5012034;28;20143;-64
2022/06/11 06:12:17;;;;;;;28.08;7.18;;;;;;;;;;5010502;28;20041;-65
2022/06/11 06:14:43;;;;;;;32.78;6.78;;;;;;;;;;5010770;28;20061;-66
2022/06/11 06:17:09;;;;;;;;;;;;;;;;;;5011387;28;20356;-64
2022/06/11 06:19:35;;;;;;;33.30;7.78;;;;;;;;;;5010899;28;19972;-64
2022/06/11 06:22:04;;;;;;;31.02;6.78;;;;;;;;;;5011873;28;20057;-64
2022/06/11 06:24:31;;;;;;;29.65;10.35;;;;;;;;;;5012055;28;20049;-64
2022/06/11 06:26:57;;;;;;;35.55;7.30;;;;;;;;;;5011613;28;20472;-77
2022/06/11 06:29:23;;;;;;;26.73;7.47;;;;;;;;;;5011386;28;20058;-66
2022/06/11 06:31:49;;;;;;;27.42;6.57;;;;;;;;;;5011492;28;20492;-64
2022/06/11 06:34:15;;;;;;;28.35;7.55;;;;;;;;;;5010459;28;20049;-65
2022/06/11 06:36:42;;;;;;;32.65;7.93;;;;;;;;;;5011868;28;20042;-64
2022/06/11 06:39:09;;;;;;;25.05;6.80;;;;;;;;;;5011753;28;20464;-63
2022/06/11 06:41:35;;;;;;;30.95;7.80;;;;;;;;;;5011517;28;20048;-65
2022/06/11 06:44:01;;;;;;;31.38;7.93;;;;;;;;;;5011337;28;20085;-64
2022/06/11 06:46:27;;;;;;;31.13;8.50;;;;;;;;;;5011970;28;20056;-67
2022/06/11 06:48:54;;;;;;;31.40;9.50;;;;;;;;;;5011427;28;20062;-66
2022/06/11 06:51:21;;;;;;;31.77;7.78;;;;;;;;;;5012163;28;20065;-65
2022/06/11 06:53:47;;;;;;;34.78;8.38;;;;;;;;;;5011491;28;20505;-64
2022/06/11 06:56:13;;;;;;;29.52;7.35;;;;;;;;;;5010450;28;20053;-65
2022/06/11 06:58:40;;;;;;;25.67;6.90;;;;;;;;;;5011560;28;20042;-64
2022/06/11 07:01:06;;;;;;;35.75;7.72;;;;;;;;;;5011137;28;20049;-63
2022/06/11 07:03:32;;;;;;;33.33;8.18;;;;;;;;;;5011246;28;20042;-65
2022/06/11 07:06:00;;;;;;;30.75;7.30;;;;;;;;;;5011431;28;20053;-65
2022/06/11 07:08:27;;;;;;;28.83;6.65;;;;;;;;;;5010860;28;20065;-64
2022/06/11 07:10:53;;;;;;;;;;;;;;;;;;5010610;28;20050;-63
2022/06/11 07:13:19;;;;;;;38.97;8.73;;;;;;;;;;5011140;28;19929;-65
2022/06/11 07:15:47;;;;;;;39.17;8.30;;;;;;;;;;5011080;28;20046;-64
2022/06/11 07:18:33;;;;;;;28.83;7.43;;;;;;;;;;5011020;28;20042;-64
2022/06/11 07:21:00;;;;;;;36.67;7.57;;;;;;;;;;5011282;28;20049;-64
2022/06/11 07:23:31;;;;;;;32.45;8.23;;;;;;;;;;5010995;28;20068;-64
2022/06/11 07:25:59;;;;;;;34.20;7.53;;;;;;;;;;5011650;28;20045;-65
2022/06/11 07:28:35;;;;;;;32.78;7.25;;;;;;;;;;5011219;28;20207;-64
2022/06/11 07:31:01;;;;;;;34.05;8.02;;;;;;;;;;5011028;28;20050;-64
2022/06/11 07:33:27;;;;;;;25.65;6.97;;;;;;;;;;5010687;28;20129;-64
2022/06/11 07:35:54;;;;;;;34.03;7.20;;;;;;;;;;5011306;28;20050;-65
2022/06/11 07:38:21;;;;;;;28.48;7.43;;;;;;;;;;5010862;28;20133;-64
2022/06/11 07:40:48;;;;;;;33.08;7.05;;;;;;;;;;5010845;28;20107;-64
2022/06/11 07:43:14;;;;;;;32.78;7.60;;;;;;;;;;5010671;28;20054;-65
2022/06/11 07:45:40;;;;;;;;;;;;;;;;;;5010137;28;20073;-64
2022/06/11 07:48:06;;;;;;;30.52;7.38;;;;;;;;;;5010638;28;20370;-64
2022/06/11 07:50:32;;;;;;;;;;;;;;;;;;5010678;28;20061;-65
2022/06/11 07:52:58;;;;;;;33.55;9.13;;;;;;;;;;5011005;28;19925;-63
2022/06/11 07:55:24;;;;;;;;;;;;;;;;;;5013451;28;20041;-63
2022/06/11 07:57:51;;;;;;;26.88;7.05;;;;;;;;;;5014492;28;19979;-64
2022/06/11 08:00:22;;;;;;;33.05;7.88;;;;;;;;;;5014154;28;20427;-64
2022/06/11 08:02:48;;;;;;;32.25;6.80;;;;;;;;;;5014653;28;20045;-63
2022/06/11 08:05:14;;;;;;;27.02;6.45;;;;;;;;;;5013109;28;20046;-64
2022/06/11 08:07:42;;;;;;;28.30;6.68;;;;;;;;;;5014185;28;20554;-66
2022/06/11 08:10:09;;;;;;;31.73;6.88;;;;;;;;;;5014156;28;20061;-67
2022/06/11 08:12:35;;;;;;;30.27;6.10;;;;;;;;;;5014208;28;20062;-64
2022/06/11 08:15:01;;;;;;;26.27;6.28;;;;;;;;;;5012888;28;20081;-65
2022/06/11 08:17:28;;;;;;;28.50;6.15;;;;;;;;;;5014011;28;20112;-64
2022/06/11 08:19:54;;;;;;;21.20;5.60;;;;;;;;;;5012593;28;20042;-65
2022/06/11 08:22:20;;;;;;;21.23;5.63;;;;;;;;;;5014589;28;20347;-63
2022/06/11 08:24:47;;;;;;;31.23;5.95;;;;;;;;;;5014622;28;20050;-64
2022/06/11 08:27:16;;;;;;;28.90;5.88;;;;;;;;;;5014343;28;20405;-65
2022/06/11 08:29:42;;;;;;;22.92;5.28;;;;;;;;;;5013027;28;20404;-65
2022/06/11 08:32:10;;;;;;;26.38;5.75;;;;;;;;;;4997002;28;20050;-64
2022/06/11 08:34:37;;;;;;;29.00;5.97;;;;;;;;;;5014346;28;20416;-65
2022/06/11 08:37:03;;;;;;;26.00;5.90;;;;;;;;;;5013885;28;20111;-65
2022/06/11 08:39:29;;;;;;;;;;;;;;;;;;5014110;28;20049;-66
2022/06/11 08:41:56;;;;;;;25.67;6.13;;;;;;;;;;5013913;28;20360;-65
2022/06/11 08:44:24;;;;;;;21.83;6.30;;;;;;;;;;5013536;28;20064;-64
2022/06/11 08:46:50;;;;;;;28.35;6.47;;;;;;;;;;5013879;28;20064;-67
2022/06/11 08:49:16;;;;;;;27.63;5.82;;;;;;;;;;5012873;28;20528;-66
2022/06/11 08:51:50;;;;;;;30.67;6.03;;;;;;;;;;5012469;28;20076;-73
2022/06/11 08:54:18;;;;;;;26.27;5.13;;;;;;;;;;5013131;28;20088;-65
2022/06/11 08:56:57;;;;;;;30.45;5.65;;;;;;;;;;5013096;28;20081;-76
2022/06/11 08:59:41;;;;;;;77.70;8.43;;;;;;;;;;5012017;28;20138;-80
2022/06/11 09:02:14;;;;;;;26.75;6.60;;;;;;;;;;5013236;28;20038;-82
2022/06/11 09:04:58;;;;;;;27.58;5.75;;;;;;;;;;5013535;28;20049;-77
2022/06/11 09:07:27;;;;;;;28.15;5.80;;;;;;;;;;5012305;28;20046;-63
2022/06/11 09:09:56;;;;;;;29.08;6.85;;;;;;;;;;5012912;28;20049;-64
2022/06/11 09:12:36;;;;;;;26.35;5.93;;;;;;;;;;5012798;28;20046;-64
2022/06/11 09:15:13;;;;;;;26.55;5.57;;;;;;;;;;5012987;28;20041;-65
2022/06/11 09:17:45;;;;;;;26.83;5.22;;;;;;;;;;5011992;28;20060;-66
2022/06/11 09:20:11;;;;;;;25.55;4.72;;;;;;;;;;5013470;28;20054;-65
2022/06/11 09:22:49;;;;;;;19.33;4.30;;;;;;;;;;5013459;28;20127;-64
2022/06/11 09:25:28;;;;;;;22.85;4.97;;;;;;;;;;5013532;28;20049;-65
2022/06/11 09:27:59;;;;;;;20.48;4.82;;;;;;;;;;5013017;28;20073;-65
2022/06/11 09:30:54;;;;;;;18.17;4.70;;;;;;;;;;5012706;28;20132;-64
2022/06/11 09:33:29;;;;;;;21.40;5.15;;;;;;;;;;5003065;28;20457;-66
2022/06/11 09:36:02;;;;;;;18.67;4.95;;;;;;;;;;5012812;28;20058;-64
2022/06/11 09:38:28;;;;;;;21.65;4.75;;;;;;;;;;5012807;28;20200;-66
2022/06/11 09:41:08;;;;;;;26.15;4.85;;;;;;;;;;5012789;28;20046;-75
2022/06/11 09:43:42;;;;;;;24.55;4.65;;;;;;;;;;5011338;28;20085;-63
2022/06/11 09:46:14;;;;;;;21.05;4.70;;;;;;;;;;5012476;28;20077;-65
2022/06/11 09:48:46;;;;;;;21.88;4.40;;;;;;;;;;5012194;28;20064;-65
2022/06/11 09:51:17;;;;;;;27.80;4.75;;;;;;;;;;5012363;28;20119;-75
2022/06/11 09:53:46;;;;;;;20.30;4.47;;;;;;;;;;5012142;28;20046;-74
2022/06/11 09:56:12;;;;;;;22.20;3.85;;;;;;;;;;5012204;28;20042;-74
2022/06/11 09:58:53;;;;;;;23.42;4.32;;;;;;;;;;5011098;28;20417;-66
2022/06/11 10:01:23;;;;;;;16.95;3.78;;;;;;;;;;5011936;28;20151;-80
2022/06/11 10:03:49;;;;;;;23.50;4.35;;;;;;;;;;5012214;28;20409;-74
2022/06/11 10:06:15;;;;;;;18.42;3.92;;;;;;;;;;5010620;28;20041;-73
2022/06/11 10:08:58;;;;;;;17.58;4.28;;;;;;;;;;5011860;28;20041;-75
2022/06/11 10:11:37;;;;;;;20.95;4.07;;;;;;;;;;5012370;28;20046;-74
2022/06/11 10:14:29;;;;;;;21.45;3.95;;;;;;;;;;5011883;28;20053;-75
2022/06/11 10:16:58;;;;;;;16.00;3.40;;;;;;;;;;5011749;28;20394;-64
2022/06/11 10:19:24;;;;;;;19.67;3.88;;;;;;;;;;5011883;28;20048;-65
2022/06/11 10:21:50;;;;;;;;;;;;;;;;;;5012228;28;20478;-65
2022/06/11 10:24:18;;;;;;;22.60;4.03;;;;;;;;;;5011838;28;19922;-65
2022/06/11 10:26:51;;;;;;;17.17;4.22;;;;;;;;;;5010726;28;20041;-62
2022/06/11 10:29:30;;;;;;;19.90;4.18;;;;;;;;;;5011865;28;20076;-65
2022/06/11 10:32:02;;;;;;;17.70;4.50;;;;;;;;;;5011542;28;20045;-66
2022/06/11 10:34:29;;;;;;;18.17;4.60;;;;;;;;;;5012033;28;20152;-64
2022/06/11 10:36:57;;;;;;;19.25;4.32;;;;;;;;;;5011670;28;20061;-65
2022/06/11 10:39:26;;;;;;;19.15;4.22;;;;;;;;;;5011567;28;20057;-65
2022/06/11 10:42:05;;;;;;;25.58;4.50;;;;;;;;;;5011461;28;20099;-65
2022/06/11 10:44:35;;;;;;;15.77;3.83;;;;;;;;;;5011563;28;20161;-65
2022/06/11 10:47:01;;;;;;;18.63;4.18;;;;;;;;;;5010631;28;20046;-64
2022/06/11 10:49:28;;;;;;;17.65;3.70;;;;;;;;;;5010206;28;20056;-66
2022/06/11 10:51:59;;;;;;;20.30;4.43;;;;;;;;;;5011840;28;20374;-65
2022/06/11 10:54:26;;;;;;;20.10;4.72;;;;;;;;;;5012013;28;20092;-65
2022/06/11 10:56:55;;;;;;;19.02;4.28;;;;;;;;;;5011227;28;20046;-65
2022/06/11 10:59:29;;;;;;;21.52;4.28;;;;;;;;;;5011765;28;20210;-66
2022/06/11 11:02:13;;;;;;;19.58;4.53;;;;;;;;;;5009955;28;20045;-66
2022/06/11 11:04:42;;;;;;;16.17;4.15;;;;;;;;;;5011182;28;20556;-64
2022/06/11 11:07:13;;;;;;;18.27;4.38;;;;;;;;;;5011251;28;20092;-65
2022/06/11 11:09:39;;;;;;;18.10;4.00;;;;;;;;;;5009778;28;20057;-65
2022/06/11 11:12:07;;;;;;;;;;;;;;;;;;5009963;28;20038;-67
2022/06/11 11:14:38;;;;;;;24.50;7.38;;;;;;;;;;5011337;28;19928;-66
2022/06/11 11:17:06;;;;;;;18.83;4.20;;;;;;;;;;5010882;28;20050;-65
2022/06/11 11:19:34;;;;;;;16.73;3.58;;;;;;;;;;5010191;28;20049;-64
2022/06/11 11:22:09;;;;;;;19.02;4.28;;;;;;;;;;5010882;28;20057;-64
2022/06/11 11:24:37;;;;;;;19.02;3.63;;;;;;;;;;5010033;28;20129;-63
2022/06/11 11:27:23;;;;;;;19.50;3.58;;;;;;;;;;5011541;28;20061;-65
2022/06/11 11:29:52;;;;;;;18.13;3.50;;;;;;;;;;5013049;28;20541;-63
2022/06/11 11:32:37;;;;;;;20.63;4.35;;;;;;;;;;5014787;28;20098;-63
2022/06/11 11:35:18;;;;;;;18.60;4.25;;;;;;;;;;5015058;28;20050;-62
2022/06/11 11:37:45;;;;;;;22.70;4.85;;;;;;;;;;5014526;28;20509;-64
2022/06/11 11:40:32;;;;;;;20.45;3.92;;;;;;;;;;5015125;28;20085;-64
2022/06/11 11:43:02;;;;;;;17.42;3.75;;;;;;;;;;5003863;28;20050;-64
2022/06/11 11:45:45;;;;;;;18.65;4.10;;;;;;;;;;5014771;28;20461;-64
2022/06/11 11:48:23;;;;;;;21.92;4.05;;;;;;;;;;5014492;28;20397;-66
2022/06/11 11:50:50;;;;;;;15.98;3.45;;;;;;;;;;5015510;28;20050;-64
2022/06/11 11:53:25;;;;;;;19.55;3.80;;;;;;;;;;5014351;28;20445;-65
2022/06/11 11:55:56;;;;;;;14.80;3.40;;;;;;;;;;5014978;28;20050;-63
2022/06/11 11:58:27;;;;;;;24.02;4.47;;;;;;;;;;5014497;28;20045;-66
2022/06/11 12:00:55;;;;;;;19.55;3.90;;;;;;;;;;4997691;28;20061;-65
2022/06/11 12:03:21;;;;;;;20.73;4.18;;;;;;;;;;5013270;28;20238;-65
2022/06/11 12:05:47;;;;;;;;;;;;;;;;;;5015071;28;20208;-65
2022/06/11 12:08:17;;;;;;;18.73;3.92;;;;;;;;;;5013355;28;20341;-65
2022/06/11 12:10:49;;;;;;;18.42;4.10;;;;;;;;;;5013929;28;20529;-65
2022/06/11 12:13:23;;;;;;;17.83;3.67;;;;;;;;;;5014298;28;20042;-64
2022/06/11 12:15:58;;;;;;;17.13;3.35;;;;;;;;;;5013975;28;20052;-64
2022/06/11 12:18:30;;;;;;;18.95;3.70;;;;;;;;;;5014234;28;20053;-65
2022/06/11 12:21:00;;;;;;;18.05;3.88;;;;;;;;;;5013080;28;20084;-63
2022/06/11 12:23:41;;;;;;;16.20;3.60;;;;;;;;;;5013761;28;20096;-66
2022/06/11 12:26:18;;;;;;;15.90;3.60;;;;;;;;;;5014022;28;20598;-66
2022/06/11 12:28:47;;;;;;;15.55;4.03;;;;;;;;;;5013746;28;20458;-65
2022/06/11 12:31:14;;;;;;;16.90;3.33;;;;;;;;;;5014359;28;20046;-65
2022/06/11 12:33:44;;;;;;;15.13;2.97;;;;;;;;;;5013652;28;20348;-66
2022/06/11 12:36:15;;;;;;;16.02;3.50;;;;;;;;;;5014037;28;20050;-64
2022/06/11 12:38:41;;;;;;;17.80;3.45;;;;;;;;;;5013971;28;20053;-66
2022/06/11 12:41:07;;;;;;;15.52;3.20;;;;;;;;;;5012471;28;20048;-67
2022/06/11 12:43:33;;;;;;;;;;;;;;;;;;5014215;28;20085;-66
2022/06/11 12:46:05;;;;;;;16.23;3.42;;;;;;;;;;5013858;28;19917;-64
2022/06/11 12:48:40;;;;;;;14.88;3.20;;;;;;;;;;5013394;28;20069;-65
2022/06/11 12:51:08;;;;;;;13.98;3.08;;;;;;;;;;5013671;28;20065;-64
2022/06/11 12:53:34;;;;;;;12.82;3.05;;;;;;;;;;5012147;28;20046;-66
2022/06/11 12:56:00;;;;;;;;;;;;;;;;;;5013067;28;20053;-64
2022/06/11 12:58:36;;;;;;;16.65;4.18;;;;;;;;;;5013505;28;19929;-65
2022/06/11 13:01:29;;;;;;;17.40;3.95;;;;;;;;;;5012875;28;20360;-65
2022/06/11 13:04:10;;;;;;;17.02;4.43;;;;;;;;;;5004972;28;20057;-65
2022/06/11 13:06:40;;;;;;;17.33;3.83;;;;;;;;;;5012677;28;20054;-65
2022/06/11 13:09:16;;;;;;;17.38;3.85;;;;;;;;;;5013495;28;20050;-63
2022/06/11 13:12:00;;;;;;;19.42;3.83;;;;;;;;;;5012924;28;20448;-65
2022/06/11 13:14:35;;;;;;;16.23;3.47;;;;;;;;;;5013705;28;20050;-65
2022/06/11 13:17:12;;;;;;;16.67;3.05;;;;;;;;;;5013544;28;20127;-64
2022/06/11 13:19:56;;;;;;;17.77;3.67;;;;;;;;;;5013331;28;20104;-66
2022/06/11 13:22:51;;;;;;;13.45;2.97;;;;;;;;;;5013139;28;20455;-67
2022/06/11 13:25:36;;;;;;;16.92;4.07;;;;;;;;;;5007963;28;20498;-68
2022/06/11 13:28:21;;;;;;;14.68;3.47;;;;;;;;;;5011979;28;20146;-66
2022/06/11 13:30:50;;;;;;;14.43;3.42;;;;;;;;;;5012793;28;20376;-65
2022/06/11 13:33:34;;;;;;;17.30;3.10;;;;;;;;;;5012277;28;20085;-66
2022/06/11 13:36:07;;;;;;;13.13;3.10;;;;;;;;;;5012232;28;20057;-65
2022/06/11 13:38:49;;;;;;;20.33;4.05;;;;;;;;;;5012953;28;20049;-66
2022/06/11 13:41:33;;;;;;;15.85;3.53;;;;;;;;;;5011039;28;20054;-63
2022/06/11 13:44:11;;;;;;;19.83;3.97;;;;;;;;;;5012202;28;20470;-66
2022/06/11 13:46:50;;;;;;;15.68;4.03;;;;;;;;;;5012067;28;20069;-64
2022/06/11 13:49:38;;;;;;;17.27;3.67;;;;;;;;;;5012447;28;20058;-65
2022/06/11 13:52:10;;;;;;;17.35;3.70;;;;;;;;;;5012768;28;20099;-65
2022/06/11 13:57:22;;;;;;;16.58;3.97;;;;;;;;;;5012473;28;20118;-65
2022/06/11 13:59:48;;;;;;;;;;;;;;;;;;5012975;28;20133;-66
2022/06/11 14:02:14;;;;;;;23.83;4.43;;;;;;;;;;5011099;28;20080;-66
2022/06/11 14:04:48;;;;;;;16.80;3.67;;;;;;;;;;5012036;28;20050;-64
2022/06/11 14:07:16;;;;;;;16.48;4.00;;;;;;;;;;5010467;28;20111;-66
2022/06/11 14:12:43;;;;;;;17.90;3.72;;;;;;;;;;5010629;28;20096;-65
2022/06/11 14:15:29;;;;;;;15.65;3.70;;;;;;;;;;5011891;28;20228;-63
2022/06/11 14:17:55;;;;;;;17.80;4.07;;;;;;;;;;5011638;28;20100;-66
2022/06/11 14:20:23;;;;;;;16.98;3.92;;;;;;;;;;5011382;28;20390;-66
2022/06/11 14:22:54;;;;;;;15.50;3.78;;;;;;;;;;5011683;28;20042;-66
2022/06/11 14:25:35;;;;;;;18.00;4.15;;;;;;;;;;5011114;28;20104;-66
2022/06/11 14:28:17;;;;;;;21.98;3.80;;;;;;;;;;5011280;28;20054;-64
2022/06/11 14:30:47;;;;;;;17.08;3.72;;;;;;;;;;5011364;28;20107;-65
2022/06/11 14:33:13;;;;;;;19.48;4.43;;;;;;;;;;5011198;28;20112;-65
2022/06/11 14:35:40;;;;;;;;;;;;;;;;;;5011014;28;20042;-66
2022/06/11 14:38:21;;;;;;;19.73;3.75;;;;;;;;;;5011892;28;20300;-64
2022/06/11 14:40:48;;;;;;;15.32;4.25;;;;;;;;;;5011460;28;20053;-65
2022/06/11 14:43:16;;;;;;;20.08;4.22;;;;;;;;;;5011534;28;20121;-64
2022/06/11 14:45:56;;;;;;;18.35;3.88;;;;;;;;;;5010946;28;20552;-64
2022/06/11 14:48:35;;;;;;;17.30;3.72;;;;;;;;;;5011108;28;20057;-65
2022/06/11 14:51:01;;;;;;;19.02;4.22;;;;;;;;;;5011524;28;20117;-65
2022/06/11 14:53:27;;;;;;;;;;;;;;;;;;5011477;28;20128;-65
2022/06/11 14:55:54;;;;;;;18.73;4.30;;;;;;;;;;5011249;28;20046;-65
2022/06/11 14:58:50;;;;;;;20.13;3.95;;;;;;;;;;5011732;28;20050;-66
2022/06/11 15:01:25;;;;;;;18.08;4.45;;;;;;;;;;4992037;28;20054;-63